Time;durP1;ratioP1;P1;durP2;ratioP2;P2;SDS_P1;SDS_P2;PMS_P1;PMS_P2;Temp;Humidity;BMP_temperature;BMP_pressure;BME280_temperature;BME280_humidity;BME280_pressure;Samples;Min_cycle;Max_cycle;Signal;HPM_P1;HPM_P2
2023/06/04 00:01:26;;;;;;;4.63;1.75;;;11.30;99.90;;;;;;2603461;54;20060;31
2023/06/04 00:04:02;;;;;;;4.13;1.30;;;11.30;99.90;;;;;;2603480;54;20031;31
2023/06/04 00:06:38;;;;;;;6.20;1.70;;;11.30;99.90;;;;;;2603817;54;20027;31
2023/06/04 00:09:13;;;;;;;7.20;1.90;;;11.20;99.90;;;;;;2603497;54;20044;31
2023/06/04 00:11:52;;;;;;;3.63;1.60;;;11.20;99.90;;;;;;2603661;54;20781;31
2023/06/04 00:14:26;;;;;;;6.90;1.63;;;11.20;99.90;;;;;;2622311;46;20030;31
2023/06/04 00:17:02;;;;;;;3.75;1.90;;;11.10;99.90;;;;;;2603510;54;20038;31
2023/06/04 00:19:39;;;;;;;4.15;1.35;;;11.10;99.90;;;;;;2603717;54;20030;31
2023/06/04 00:22:15;;;;;;;4.10;1.63;;;11.10;99.90;;;;;;2603619;54;20108;31
2023/06/04 00:24:50;;;;;;;4.75;1.20;;;11.10;99.90;;;;;;2603712;54;20034;31
2023/06/04 00:27:29;;;;;;;5.83;2.20;;;11.00;99.90;;;;;;2621906;46;20030;31
2023/06/04 00:30:04;;;;;;;4.57;1.27;;;11.00;99.90;;;;;;2603429;54;20027;31
2023/06/04 00:32:41;;;;;;;4.95;1.60;;;10.90;99.90;;;;;;2603710;54;20034;31
2023/06/04 00:35:15;;;;;;;;;;;10.90;99.90;;;;;;2603712;54;20026;31
2023/06/04 00:37:52;;;;;;;6.30;1.85;;;10.90;99.90;;;;;;2603615;54;20725;31
2023/06/04 00:40:29;;;;;;;4.38;1.88;;;10.80;99.90;;;;;;2603665;54;20846;31
2023/06/04 00:43:09;;;;;;;3.63;1.80;;;10.70;99.90;;;;;;2603064;54;20029;31
2023/06/04 00:45:45;;;;;;;4.43;2.08;;;10.70;99.90;;;;;;2621946;46;20030;31
2023/06/04 00:48:20;;;;;;;4.63;1.85;;;10.60;99.90;;;;;;2621933;46;20022;31
2023/06/04 00:50:55;;;;;;;5.77;2.10;;;10.60;99.90;;;;;;2603295;54;20077;31
2023/06/04 00:53:30;;;;;;;6.15;2.10;;;10.50;99.90;;;;;;2621887;46;20053;31
2023/06/04 00:56:05;;;;;;;4.10;1.85;;;10.50;99.90;;;;;;2702082;39;20434;31
2023/06/04 00:58:44;;;;;;;4.88;1.73;;;10.30;99.90;;;;;;2603508;54;20116;31
2023/06/04 01:01:23;;;;;;;5.00;2.10;;;10.30;99.90;;;;;;2603318;54;20030;31
2023/06/04 01:03:59;;;;;;;6.30;2.30;;;10.30;99.90;;;;;;2603552;54;20031;31
2023/06/04 01:06:39;;;;;;;3.85;1.65;;;10.20;99.90;;;;;;2603414;54;20038;31
2023/06/04 01:09:15;;;;;;;3.80;1.60;;;10.20;99.90;;;;;;2603421;54;20029;31
2023/06/04 01:11:50;;;;;;;;;;;10.20;99.90;;;;;;2603528;54;20503;31
2023/06/04 01:14:29;;;;;;;6.30;1.70;;;10.20;99.90;;;;;;2622001;46;19934;31
2023/06/04 01:17:08;;;;;;;4.43;1.83;;;10.20;99.90;;;;;;2603615;54;20026;31
2023/06/04 01:20:11;;;;;;;5.30;1.70;;;10.20;99.90;;;;;;2603486;54;20033;31
2023/06/04 01:22:45;;;;;;;4.70;1.95;;;10.10;99.90;;;;;;2603275;54;20104;31
2023/06/04 01:25:25;;;;;;;6.40;1.73;;;10.10;99.90;;;;;;2603538;54;20022;31
2023/06/04 01:28:01;;;;;;;6.00;3.05;;;10.10;99.90;;;;;;2603312;54;20741;31
2023/06/04 01:30:43;;;;;;;7.07;2.37;;;10.10;99.90;;;;;;2603180;54;20821;31
2023/06/04 01:33:20;;;;;;;3.88;2.15;;;10.00;99.90;;;;;;2603422;54;21002;31
2023/06/04 01:35:56;;;;;;;7.45;3.03;;;10.00;99.90;;;;;;2618145;46;20053;31
2023/06/04 01:38:31;;;;;;;;;;;10.00;99.90;;;;;;2603502;54;20752;31
2023/06/04 01:41:07;;;;;;;7.63;2.08;;;9.90;99.90;;;;;;2622220;46;19934;31
2023/06/04 01:43:43;;;;;;;5.15;2.28;;;9.90;99.90;;;;;;2603112;54;20085;31
2023/06/04 01:46:22;;;;;;;4.70;1.90;;;9.80;99.90;;;;;;2603314;54;20029;31
2023/06/04 01:48:57;;;;;;;4.05;2.20;;;9.80;99.90;;;;;;2603259;54;20030;31
2023/06/04 01:51:35;;;;;;;3.57;2.17;;;9.80;99.90;;;;;;2603474;54;20026;31
2023/06/04 01:54:11;;;;;;;3.13;1.80;;;9.70;99.90;;;;;;2603487;54;20892;31
2023/06/04 01:56:48;;;;;;;5.43;1.83;;;9.70;99.90;;;;;;2603155;54;20955;31
2023/06/04 01:59:27;;;;;;;5.63;2.88;;;9.60;99.90;;;;;;2603195;54;20089;31
2023/06/04 02:02:04;;;;;;;4.25;2.30;;;9.60;99.90;;;;;;2603095;54;20838;31
2023/06/04 02:04:41;;;;;;;5.55;3.45;;;9.50;99.90;;;;;;2603226;54;20073;31
2023/06/04 02:07:17;;;;;;;5.53;2.42;;;9.50;99.90;;;;;;2603225;54;20828;31
2023/06/04 02:09:52;;;;;;;7.37;2.80;;;9.40;99.90;;;;;;2603303;54;20880;31
2023/06/04 02:12:28;;;;;;;4.95;2.22;;;9.40;99.90;;;;;;2603142;54;20756;31
2023/06/04 02:15:06;;;;;;;4.80;1.67;;;9.30;99.90;;;;;;2603179;54;20048;31
2023/06/04 02:17:45;;;;;;;7.10;2.25;;;9.30;99.90;;;;;;2603323;54;20899;31
2023/06/04 02:20:22;;;;;;;6.40;2.37;;;9.30;99.90;;;;;;2603439;54;20037;31
2023/06/04 02:22:59;;;;;;;5.25;2.10;;;9.20;99.90;;;;;;2621485;46;20030;31
2023/06/04 02:25:35;;;;;;;4.90;1.92;;;9.20;99.90;;;;;;2603338;54;20880;31
2023/06/04 02:28:08;;;;;;;8.88;2.78;;;9.20;99.90;;;;;;2603283;54;20085;31
2023/06/04 02:30:43;;;;;;;4.32;1.98;;;9.10;99.90;;;;;;2603221;54;20037;31
2023/06/04 02:33:23;;;;;;;3.33;2.17;;;9.10;99.90;;;;;;2603076;54;20058;31
2023/06/04 02:35:59;;;;;;;4.20;1.70;;;9.00;99.90;;;;;;2603226;54;20030;31
2023/06/04 02:38:34;;;;;;;4.70;2.35;;;9.00;99.90;;;;;;2603172;54;20795;31
2023/06/04 02:41:10;;;;;;;4.30;1.90;;;9.00;99.90;;;;;;2603172;54;20026;31
2023/06/04 02:43:45;;;;;;;;;;;9.00;99.90;;;;;;2603186;54;20753;31
2023/06/04 02:46:23;;;;;;;4.95;1.55;;;8.90;99.90;;;;;;2603000;54;19934;31
2023/06/04 02:49:02;;;;;;;5.05;1.95;;;8.90;99.90;;;;;;2603142;54;20057;31
2023/06/04 02:51:40;;;;;;;2.90;1.63;;;8.90;99.90;;;;;;2603051;54;20026;31
2023/06/04 02:54:16;;;;;;;5.03;2.10;;;8.80;99.90;;;;;;2621436;47;20022;31
2023/06/04 02:56:53;;;;;;;4.03;1.67;;;8.70;99.90;;;;;;2603219;54;20042;31
2023/06/04 02:59:28;;;;;;;5.75;2.35;;;8.70;99.90;;;;;;2602914;54;19934;31
2023/06/04 03:02:04;;;;;;;3.00;1.80;;;8.70;99.90;;;;;;2603081;54;20022;31
2023/06/04 03:04:44;;;;;;;6.38;2.10;;;8.70;99.90;;;;;;2602904;54;20291;31
2023/06/04 03:07:22;;;;;;;5.25;2.45;;;8.70;99.90;;;;;;2603078;54;20030;31
2023/06/04 03:09:59;;;;;;;5.68;2.90;;;8.70;99.90;;;;;;2603233;54;20022;31
2023/06/04 03:12:35;;;;;;;3.75;2.15;;;8.70;99.90;;;;;;2603254;54;20825;31
2023/06/04 03:15:12;;;;;;;4.22;2.70;;;8.70;99.90;;;;;;2773541;31;20620;31
2023/06/04 03:17:48;;;;;;;6.10;2.70;;;8.70;99.90;;;;;;2604194;54;20037;31
2023/06/04 03:20:29;;;;;;;5.30;2.47;;;8.70;99.90;;;;;;2604050;54;20840;31
2023/06/04 03:23:03;;;;;;;6.40;2.67;;;8.80;99.90;;;;;;2603801;54;20027;31
2023/06/04 03:25:40;;;;;;;3.88;2.25;;;8.80;99.90;;;;;;2603957;54;20884;31
2023/06/04 03:28:16;;;;;;;5.72;3.13;;;8.90;99.90;;;;;;2621926;46;20081;31
2023/06/04 03:30:54;;;;;;;4.65;2.80;;;9.00;99.90;;;;;;2603774;54;20026;31
2023/06/04 03:33:31;;;;;;;7.53;3.20;;;9.10;99.90;;;;;;2622494;46;20030;31
2023/06/04 03:36:10;;;;;;;7.40;3.55;;;9.30;99.90;;;;;;2603792;54;20792;31
2023/06/04 03:38:49;;;;;;;4.75;3.13;;;9.40;99.90;;;;;;2603685;54;20029;31
2023/06/04 03:41:24;;;;;;;6.05;3.65;;;9.60;99.90;;;;;;2603415;54;20044;31
2023/06/04 03:44:01;;;;;;;5.57;3.10;;;9.80;99.90;;;;;;2603725;54;20026;31
2023/06/04 03:46:36;;;;;;;8.30;2.85;;;10.00;99.90;;;;;;2622022;46;20081;31
2023/06/04 03:49:12;;;;;;;5.22;2.42;;;10.10;99.90;;;;;;2702407;39;21094;31
2023/06/04 03:51:51;;;;;;;7.13;2.72;;;10.30;99.90;;;;;;2603708;54;20474;31
2023/06/04 03:54:30;;;;;;;6.40;2.95;;;10.50;99.90;;;;;;2603589;54;20027;31
2023/06/04 03:57:07;;;;;;;8.90;3.13;;;10.60;99.90;;;;;;2603656;54;20923;31
2023/06/04 03:59:43;;;;;;;9.13;2.80;;;10.80;99.90;;;;;;2622179;46;20089;31
2023/06/04 04:02:20;;;;;;;4.00;2.30;;;10.90;99.90;;;;;;2603733;54;20026;31
2023/06/04 04:04:59;;;;;;;5.75;2.58;;;11.10;99.90;;;;;;2622110;46;20030;31
2023/06/04 04:07:37;;;;;;;4.38;2.35;;;11.20;99.90;;;;;;2622385;46;20782;31
2023/06/04 04:10:13;;;;;;;5.45;2.50;;;11.40;99.90;;;;;;2603653;54;20081;31
2023/06/04 04:12:48;;;;;;;4.10;2.20;;;11.60;99.90;;;;;;2603708;54;20030;31
2023/06/04 04:15:27;;;;;;;9.73;3.13;;;11.90;99.90;;;;;;2603542;54;20085;31
2023/06/04 04:18:03;;;;;;;5.10;2.95;;;12.10;99.90;;;;;;2622013;46;20030;31
2023/06/04 04:20:40;;;;;;;5.63;3.08;;;12.20;99.90;;;;;;2603747;54;20835;31
2023/06/04 04:23:23;;;;;;;5.05;2.55;;;12.50;99.90;;;;;;2603574;54;20027;31
2023/06/04 04:26:01;;;;;;;4.60;2.25;;;12.60;99.90;;;;;;2603568;54;20026;31
2023/06/04 04:28:38;;;;;;;7.15;2.85;;;12.90;99.90;;;;;;2602781;54;20030;31
2023/06/04 04:31:15;;;;;;;6.40;2.78;;;13.10;99.90;;;;;;2603555;54;20101;31
2023/06/04 04:33:51;;;;;;;7.30;2.70;;;13.30;99.90;;;;;;2603479;54;20026;31
2023/06/04 04:36:27;;;;;;;3.88;2.30;;;13.40;99.90;;;;;;2603538;54;20117;31
2023/06/04 04:39:06;;;;;;;6.85;2.70;;;13.60;99.90;;;;;;2603553;54;20113;31
2023/06/04 04:41:43;;;;;;;7.88;3.22;;;13.80;99.90;;;;;;2609233;46;20044;31
2023/06/04 04:44:18;;;;;;;;;;;14.10;99.90;;;;;;2603657;54;20022;31
2023/06/04 04:46:53;;;;;;;5.15;3.03;;;14.30;99.90;;;;;;2621925;46;20539;31
2023/06/04 04:49:28;;;;;;;7.00;2.58;;;14.50;99.90;;;;;;2603658;54;20030;31
2023/06/04 04:52:03;;;;;;;9.60;3.10;;;14.70;99.90;;;;;;2701897;39;20373;31
2023/06/04 04:54:42;;;;;;;5.00;2.30;;;14.90;99.90;;;;;;2603710;54;20033;31
2023/06/04 04:57:17;;;;;;;5.50;2.10;;;15.10;99.90;;;;;;2603593;54;20029;31
2023/06/04 04:59:57;;;;;;;6.60;3.50;;;15.20;99.90;;;;;;2621700;46;20697;31
2023/06/04 05:02:34;;;;;;;4.53;2.47;;;15.40;99.90;;;;;;2603462;54;20843;31
2023/06/04 05:05:10;;;;;;;6.95;2.90;;;15.60;99.90;;;;;;2603225;54;20033;31
2023/06/04 05:07:46;;;;;;;5.03;2.30;;;15.80;99.90;;;;;;2603485;54;20022;31
2023/06/04 05:10:26;;;;;;;3.00;2.10;;;16.00;99.90;;;;;;2603321;54;20052;31
2023/06/04 05:13:04;;;;;;;4.20;2.45;;;16.20;99.90;;;;;;2621990;46;25130;31
2023/06/04 05:15:47;;;;;;;6.00;2.70;;;16.20;99.90;;;;;;2603474;54;20052;31
2023/06/04 05:18:28;;;;;;;5.35;1.95;;;16.40;99.90;;;;;;2603454;54;20022;31
2023/06/04 05:21:07;;;;;;;5.38;2.40;;;16.60;99.90;;;;;;2603200;54;20034;31
2023/06/04 05:23:48;;;;;;;4.95;2.08;;;16.70;99.90;;;;;;2603211;54;20034;31
2023/06/04 05:26:30;;;;;;;5.47;2.00;;;16.90;99.90;;;;;;2603204;54;20027;31
2023/06/04 05:29:11;;;;;;;6.50;2.28;;;17.20;99.90;;;;;;2603215;54;20942;31
2023/06/04 05:31:51;;;;;;;6.50;1.95;;;17.40;99.90;;;;;;2603302;54;20635;31
2023/06/04 05:34:36;;;;;;;6.10;2.38;;;17.60;99.90;;;;;;2603371;54;20888;31
2023/06/04 05:37:16;;;;;;;5.50;2.57;;;17.70;99.90;;;;;;2621518;46;20116;31
2023/06/04 05:39:52;;;;;;;4.70;2.35;;;17.80;99.90;;;;;;2603389;54;20033;31
2023/06/04 05:42:30;;;;;;;4.82;2.50;;;18.10;99.90;;;;;;2702030;39;21117;31
2023/06/04 05:45:08;;;;;;;9.55;2.58;;;18.20;99.90;;;;;;2603343;54;20037;31
2023/06/04 05:47:44;;;;;;;4.75;2.15;;;18.40;99.90;;;;;;2603413;54;20053;31
2023/06/04 05:50:19;;;;;;;3.90;2.15;;;18.60;99.90;;;;;;2603388;54;19934;31
2023/06/04 05:52:55;;;;;;;8.07;2.30;;;18.80;99.90;;;;;;2603339;54;20249;31
2023/06/04 05:55:33;;;;;;;4.40;1.90;;;18.90;99.90;;;;;;2621866;46;20127;31
2023/06/04 05:58:10;;;;;;;4.10;2.03;;;19.10;99.00;;;;;;2603254;54;20030;31
2023/06/04 06:00:48;;;;;;;4.13;1.80;;;19.20;98.50;;;;;;2603167;54;19934;31
2023/06/04 06:03:27;;;;;;;2.80;1.70;;;19.40;98.10;;;;;;2603332;54;20030;31
2023/06/04 06:08:38;;;;;;;4.38;2.10;;;19.70;97.20;;;;;;2603221;54;20874;31
2023/06/04 06:11:19;;;;;;;6.70;2.13;;;19.90;96.40;;;;;;2621701;46;20049;31
2023/06/04 06:13:59;;;;;;;4.38;1.65;;;20.10;96.10;;;;;;2603058;54;20023;31
2023/06/04 06:16:36;;;;;;;4.57;1.67;;;20.10;95.60;;;;;;2621914;46;20034;31
2023/06/04 06:19:14;;;;;;;3.40;1.80;;;20.30;95.20;;;;;;2603226;54;20869;31
2023/06/04 06:21:50;;;;;;;4.00;1.45;;;20.50;94.40;;;;;;2603047;54;20030;31
2023/06/04 06:24:26;;;;;;;4.82;1.77;;;20.50;93.00;;;;;;2603350;54;20034;31
2023/06/04 06:27:02;;;;;;;4.55;1.58;;;20.60;93.20;;;;;;2621413;46;20026;31
2023/06/04 06:29:41;;;;;;;4.95;1.80;;;20.70;93.50;;;;;;2603167;54;20851;31
2023/06/04 06:32:17;;;;;;;4.10;1.40;;;20.80;92.60;;;;;;2602900;54;20023;31
2023/06/04 06:34:55;;;;;;;2.50;1.35;;;21.00;92.80;;;;;;2603240;54;20869;31
2023/06/04 06:37:33;;;;;;;6.40;1.70;;;21.20;91.60;;;;;;2602927;54;20038;31
2023/06/04 06:40:11;;;;;;;4.17;1.53;;;21.40;91.60;;;;;;2603113;54;20029;31
2023/06/04 06:42:53;;;;;;;5.90;1.55;;;21.40;90.90;;;;;;2603111;54;20027;31
2023/06/04 06:45:31;;;;;;;3.30;1.77;;;21.60;90.40;;;;;;2603112;54;20923;31
2023/06/04 06:48:11;;;;;;;4.68;1.30;;;21.80;89.70;;;;;;2603500;54;20807;31
2023/06/04 06:50:48;;;;;;;4.88;1.88;;;21.90;88.80;;;;;;2604124;54;20023;31
2023/06/04 06:53:23;;;;;;;4.80;1.60;;;21.90;87.40;;;;;;2603818;54;19935;31
2023/06/04 06:55:59;;;;;;;6.70;1.58;;;22.20;89.50;;;;;;2603867;54;20095;31
2023/06/04 06:58:35;;;;;;;3.92;1.45;;;22.40;87.50;;;;;;2603866;54;20736;31
2023/06/04 07:01:14;;;;;;;;;;;22.50;86.60;;;;;;2702739;39;20451;31
2023/06/04 07:03:51;;;;;;;6.55;1.90;;;22.60;85.30;;;;;;2622272;46;19935;31
2023/06/04 07:06:28;;;;;;;4.30;1.85;;;22.70;85.70;;;;;;2622204;46;20038;31
2023/06/04 07:09:05;;;;;;;3.30;1.52;;;22.90;84.60;;;;;;2622236;46;20033;31
2023/06/04 07:11:41;;;;;;;7.72;1.70;;;22.80;85.10;;;;;;2622492;46;20030;31
2023/06/04 07:14:17;;;;;;;3.25;1.60;;;22.90;84.90;;;;;;2603352;54;20038;31
2023/06/04 07:16:55;;;;;;;5.95;1.80;;;23.10;84.60;;;;;;2603854;54;20046;31
2023/06/04 07:19:31;;;;;;;3.00;1.40;;;23.20;83.60;;;;;;2622198;46;20107;31
2023/06/04 07:22:06;;;;;;;3.20;1.52;;;23.30;82.60;;;;;;2603838;54;20094;31
2023/06/04 07:24:41;;;;;;;3.87;1.27;;;23.40;82.90;;;;;;2603828;54;20768;31
2023/06/04 07:27:17;;;;;;;3.30;1.40;;;23.70;82.70;;;;;;2603663;54;20099;31
2023/06/04 07:29:55;;;;;;;3.80;1.52;;;23.70;80.80;;;;;;2603905;54;20470;31
2023/06/04 07:32:33;;;;;;;3.55;1.75;;;23.90;80.60;;;;;;2603107;54;20148;31
2023/06/04 07:35:12;;;;;;;3.60;1.40;;;24.10;80.90;;;;;;2603816;54;20030;31
2023/06/04 07:37:49;;;;;;;2.03;1.20;;;24.30;78.50;;;;;;2602781;54;20113;31
2023/06/04 07:40:26;;;;;;;4.00;1.23;;;24.40;76.30;;;;;;2603659;54;20027;31
2023/06/04 07:43:01;;;;;;;2.90;1.08;;;24.60;76.60;;;;;;2603891;54;20832;31
2023/06/04 07:45:36;;;;;;;;;;;24.60;76.50;;;;;;2622248;46;20033;31
2023/06/04 07:48:16;;;;;;;5.28;1.80;;;24.60;76.60;;;;;;2603885;54;19939;31
2023/06/04 07:50:52;;;;;;;3.70;1.02;;;24.60;75.90;;;;;;2603483;54;20852;31
2023/06/04 07:53:28;;;;;;;5.72;2.10;;;24.60;75.50;;;;;;2621638;46;20851;31
2023/06/04 07:56:03;;;;;;;3.03;1.85;;;24.70;75.60;;;;;;2603523;54;20026;31
2023/06/04 07:58:40;;;;;;;2.67;1.17;;;24.80;75.00;;;;;;2603576;54;20934;31
2023/06/04 08:01:15;;;;;;;6.18;1.40;;;24.90;75.40;;;;;;2621649;46;20881;31
2023/06/04 08:03:54;;;;;;;5.35;1.10;;;25.00;75.50;;;;;;2603589;54;20026;31
2023/06/04 08:06:30;;;;;;;3.10;1.10;;;25.20;75.20;;;;;;2622089;46;20033;31
2023/06/04 08:09:09;;;;;;;1.90;0.77;;;25.50;73.80;;;;;;2602793;54;20752;31
2023/06/04 08:11:45;;;;;;;4.05;1.05;;;25.70;71.90;;;;;;2603493;54;20156;31
2023/06/04 08:14:23;;;;;;;4.85;1.30;;;25.80;71.70;;;;;;2603583;54;20905;31
2023/06/04 08:16:59;;;;;;;1.65;1.05;;;25.80;70.90;;;;;;2621735;46;20026;31
2023/06/04 08:19:38;;;;;;;4.25;1.15;;;25.90;70.40;;;;;;2603493;54;20174;31
2023/06/04 08:22:14;;;;;;;2.63;1.20;;;25.80;69.90;;;;;;2603511;54;20803;31
2023/06/04 08:24:50;;;;;;;3.90;1.33;;;25.90;68.40;;;;;;2622020;46;20030;31
2023/06/04 08:27:29;;;;;;;3.07;1.30;;;26.00;66.20;;;;;;2621907;46;20022;31
2023/06/04 08:30:07;;;;;;;3.15;0.80;;;26.20;65.70;;;;;;2602692;54;20767;31
2023/06/04 08:32:45;;;;;;;5.30;1.10;;;26.30;64.30;;;;;;2602760;54;20026;31
2023/06/04 08:35:24;;;;;;;2.78;0.93;;;26.30;66.70;;;;;;2622381;46;20030;31
2023/06/04 08:38:00;;;;;;;2.15;0.95;;;26.40;65.10;;;;;;2622043;46;20077;31
2023/06/04 08:40:37;;;;;;;3.42;1.00;;;26.20;60.90;;;;;;2603341;54;20096;31
2023/06/04 08:43:14;;;;;;;2.85;0.88;;;26.00;61.90;;;;;;2603398;54;20031;31
2023/06/04 08:45:52;;;;;;;3.90;1.40;;;26.00;62.50;;;;;;2602929;54;20915;31
2023/06/04 08:48:28;;;;;;;1.70;1.00;;;26.00;63.10;;;;;;2603084;54;20030;31
2023/06/04 08:51:10;;;;;;;2.90;0.93;;;26.20;62.30;;;;;;2603456;54;20164;31
2023/06/04 08:53:47;;;;;;;1.52;0.88;;;26.20;62.50;;;;;;2603604;54;20512;31
2023/06/04 08:56:28;;;;;;;4.68;1.30;;;26.30;63.30;;;;;;2603469;54;20033;31
2023/06/04 08:59:08;;;;;;;7.40;1.60;;;26.20;64.20;;;;;;2603534;54;20026;31
2023/06/04 09:01:44;;;;;;;4.83;0.80;;;26.20;63.50;;;;;;2603394;54;20265;31
2023/06/04 09:04:21;;;;;;;2.92;1.00;;;26.20;62.50;;;;;;2621845;46;20100;31
2023/06/04 09:07:05;;;;;;;2.80;1.10;;;26.10;62.70;;;;;;2603414;54;20029;31
2023/06/04 09:09:42;;;;;;;3.23;0.77;;;26.20;59.90;;;;;;2603394;54;20140;31
2023/06/04 09:12:21;;;;;;;1.65;0.88;;;26.10;59.40;;;;;;2602902;54;20085;31
2023/06/04 09:14:57;;;;;;;2.03;0.80;;;26.20;59.70;;;;;;2602708;54;20866;31
2023/06/04 09:17:32;;;;;;;1.42;0.63;;;26.10;60.00;;;;;;2602697;54;20027;31
2023/06/04 09:20:11;;;;;;;5.00;1.60;;;26.10;59.30;;;;;;2603610;54;20038;31
2023/06/04 09:22:51;;;;;;;1.10;0.65;;;25.90;58.00;;;;;;2603448;54;20835;31
2023/06/04 09:25:28;;;;;;;2.47;0.67;;;25.70;59.00;;;;;;2622098;46;20026;31
2023/06/04 09:28:09;;;;;;;2.05;0.60;;;25.80;58.40;;;;;;2603523;54;20245;31
2023/06/04 09:30:55;;;;;;;3.72;0.50;;;25.80;60.30;;;;;;2603454;54;20889;31
2023/06/04 09:33:31;;;;;;;5.90;1.10;;;26.10;59.70;;;;;;2603279;54;20160;31
2023/06/04 09:36:07;;;;;;;1.92;0.70;;;26.20;59.10;;;;;;2621753;46;20034;31
2023/06/04 09:38:46;;;;;;;2.63;1.05;;;26.30;59.30;;;;;;2603476;54;20033;31
2023/06/04 09:41:27;;;;;;;4.00;1.00;;;26.30;60.20;;;;;;2603449;54;20028;31
2023/06/04 09:44:02;;;;;;;2.28;1.00;;;26.30;60.40;;;;;;2603186;54;20030;31
2023/06/04 09:46:38;;;;;;;3.20;0.80;;;26.30;60.20;;;;;;2701695;39;20446;31
2023/06/04 09:49:16;;;;;;;2.50;1.00;;;26.20;58.80;;;;;;2603109;54;20795;31
2023/06/04 09:51:53;;;;;;;1.50;0.75;;;26.20;61.00;;;;;;2603414;54;20033;31
2023/06/04 09:54:41;;;;;;;1.27;0.75;;;26.20;59.80;;;;;;2621770;46;20850;31
2023/06/04 09:57:21;;;;;;;1.77;0.75;;;26.20;60.40;;;;;;2603353;54;20030;31
2023/06/04 09:59:58;;;;;;;2.15;0.60;;;26.30;58.50;;;;;;2603255;54;20033;31
2023/06/04 10:02:33;;;;;;;1.57;0.80;;;26.40;58.80;;;;;;2764174;31;20022;31
2023/06/04 10:05:11;;;;;;;;;;;26.40;58.30;;;;;;2602664;54;20034;31
2023/06/04 10:07:49;;;;;;;1.63;0.70;;;26.30;58.50;;;;;;2603185;54;19934;31
2023/06/04 10:10:28;;;;;;;1.30;0.68;;;26.20;58.30;;;;;;2603189;54;20034;31
2023/06/04 10:13:06;;;;;;;3.50;0.90;;;26.10;58.10;;;;;;2603277;54;20037;31
2023/06/04 10:15:40;;;;;;;2.50;0.80;;;26.00;57.30;;;;;;2603152;54;20857;31
2023/06/04 10:18:18;;;;;;;1.60;0.88;;;25.90;57.60;;;;;;2603036;54;20026;31
2023/06/04 10:20:52;;;;;;;1.40;0.60;;;26.00;58.70;;;;;;2603120;54;20867;31
2023/06/04 10:23:29;;;;;;;1.55;0.75;;;26.00;57.00;;;;;;2603312;54;20828;31
2023/06/04 10:26:07;;;;;;;3.78;1.30;;;26.10;59.20;;;;;;2603005;54;20053;31
2023/06/04 10:28:43;;;;;;;4.05;0.75;;;26.10;57.80;;;;;;2603180;54;20026;31
2023/06/04 10:31:18;;;;;;;1.80;0.60;;;26.10;58.70;;;;;;2602993;54;20863;31
2023/06/04 10:33:56;;;;;;;;;;;26.00;57.60;;;;;;2603204;54;20034;31
2023/06/04 10:36:31;;;;;;;4.50;0.63;;;25.90;57.60;;;;;;2621685;47;20844;31
2023/06/04 10:39:06;;;;;;;2.00;1.05;;;25.90;58.30;;;;;;2621394;47;20805;31
2023/06/04 10:41:45;;;;;;;2.87;0.80;;;26.00;57.90;;;;;;2602985;54;20033;31
2023/06/04 10:44:20;;;;;;;4.93;1.00;;;26.10;58.00;;;;;;2603128;54;20033;31
2023/06/04 10:46:54;;;;;;;2.70;0.88;;;26.00;57.80;;;;;;2603014;54;20056;31
2023/06/04 10:49:31;;;;;;;3.75;0.80;;;26.00;58.40;;;;;;2603052;54;20872;31
2023/06/04 10:52:13;;;;;;;2.50;0.80;;;26.00;57.90;;;;;;2603068;54;20933;31
2023/06/04 10:54:53;;;;;;;3.58;0.70;;;26.00;57.80;;;;;;2719426;39;20454;31
2023/06/04 10:57:33;;;;;;;1.27;1.05;;;25.70;57.10;;;;;;2621412;47;20027;31
2023/06/04 11:00:14;;;;;;;2.40;0.63;;;25.70;56.90;;;;;;2603010;54;20920;31
2023/06/04 11:02:55;;;;;;;1.65;0.85;;;25.70;58.00;;;;;;2602932;54;20913;31
2023/06/04 11:05:37;;;;;;;1.40;0.70;;;25.70;57.20;;;;;;2603013;54;20841;31
2023/06/04 11:08:13;;;;;;;2.75;0.70;;;25.70;57.10;;;;;;2621379;47;20049;31
2023/06/04 11:10:48;;;;;;;1.42;0.80;;;25.60;58.20;;;;;;2603032;54;20261;31
2023/06/04 11:13:29;;;;;;;2.35;0.80;;;25.60;58.10;;;;;;2602912;54;20031;31
2023/06/04 11:16:04;;;;;;;2.00;0.90;;;25.40;57.70;;;;;;2603179;54;20037;31
2023/06/04 11:18:39;;;;;;;3.22;0.70;;;25.50;60.00;;;;;;2602797;54;20892;31
2023/06/04 11:21:15;;;;;;;3.65;0.90;;;25.60;58.30;;;;;;2602867;54;20112;31
2023/06/04 11:23:50;;;;;;;2.10;0.80;;;25.50;58.80;;;;;;2602885;54;20041;31
2023/06/04 11:26:25;;;;;;;;;;;25.50;58.10;;;;;;2602988;54;20056;31
2023/06/04 11:29:03;;;;;;;2.75;0.80;;;25.50;58.30;;;;;;2602808;54;20691;31
2023/06/04 11:31:45;;;;;;;2.70;0.80;;;25.40;57.40;;;;;;2602785;54;20857;31
2023/06/04 11:34:26;;;;;;;1.70;0.95;;;25.30;58.10;;;;;;2602993;54;20787;31
2023/06/04 11:37:10;;;;;;;2.92;1.10;;;25.10;58.50;;;;;;2603599;54;20102;31
2023/06/04 11:39:46;;;;;;;1.98;0.82;;;25.10;60.50;;;;;;2603565;54;20031;31
2023/06/04 11:42:21;;;;;;;1.77;0.90;;;25.10;61.30;;;;;;2603555;54;20847;31
2023/06/04 11:45:01;;;;;;;3.35;0.70;;;25.30;61.40;;;;;;2603716;54;20058;31
2023/06/04 11:47:35;;;;;;;2.20;0.88;;;25.30;59.30;;;;;;2603735;54;20321;31
2023/06/04 11:50:14;;;;;;;2.35;0.73;;;25.40;59.40;;;;;;2603577;54;20939;31
2023/06/04 11:52:49;;;;;;;1.35;0.65;;;25.40;58.10;;;;;;2603772;54;20053;31
2023/06/04 11:55:25;;;;;;;1.70;0.90;;;25.30;58.30;;;;;;2603675;54;20879;31
2023/06/04 11:58:00;;;;;;;2.50;0.95;;;25.20;57.10;;;;;;2603273;54;20803;31
2023/06/04 12:00:38;;;;;;;2.23;0.80;;;25.20;58.60;;;;;;2603491;54;20037;31
2023/06/04 12:03:13;;;;;;;1.50;0.80;;;25.10;58.60;;;;;;2603481;54;20250;31
2023/06/04 12:05:48;;;;;;;2.25;0.50;;;25.00;58.60;;;;;;2603470;54;20242;31
2023/06/04 12:08:26;;;;;;;2.65;0.90;;;24.90;58.40;;;;;;2603570;54;20144;31
2023/06/04 12:10:59;;;;;;;1.63;0.80;;;24.90;57.10;;;;;;2603900;54;20085;31
2023/06/04 12:13:40;;;;;;;3.10;0.88;;;24.80;58.60;;;;;;2603814;54;20834;31
2023/06/04 12:16:22;;;;;;;1.60;0.85;;;24.80;58.20;;;;;;2622197;46;20031;31
2023/06/04 12:19:10;;;;;;;1.95;0.70;;;24.80;58.90;;;;;;2603991;54;20027;31
2023/06/04 12:21:45;;;;;;;3.88;1.25;;;24.90;60.10;;;;;;2603722;54;20888;31
2023/06/04 12:24:20;;;;;;;3.00;0.85;;;24.90;59.10;;;;;;2603617;54;20026;31
2023/06/04 12:27:04;;;;;;;1.97;0.70;;;24.80;58.60;;;;;;2603751;54;20467;31
2023/06/04 12:29:40;;;;;;;3.38;0.90;;;24.90;59.50;;;;;;2621784;46;20027;31
2023/06/04 12:32:17;;;;;;;;;;;24.90;59.00;;;;;;2613889;46;20031;31
2023/06/04 12:34:54;;;;;;;3.80;0.70;;;24.90;58.80;;;;;;2603609;54;19934;31
2023/06/04 12:37:30;;;;;;;2.13;1.00;;;24.90;57.90;;;;;;2603714;54;20046;31
2023/06/04 12:40:04;;;;;;;;;;;24.90;58.20;;;;;;2603736;54;20817;31
2023/06/04 12:42:41;;;;;;;2.40;1.15;;;24.80;58.60;;;;;;2603621;54;20024;31
2023/06/04 12:45:16;;;;;;;2.67;1.15;;;24.80;58.50;;;;;;2621494;46;20438;31
2023/06/04 12:47:53;;;;;;;3.67;0.88;;;24.70;58.10;;;;;;2603599;54;20813;31
2023/06/04 12:50:28;;;;;;;4.37;0.67;;;24.70;58.60;;;;;;2603545;54;20031;31
2023/06/04 12:53:03;;;;;;;1.77;0.80;;;24.60;57.80;;;;;;2603336;54;20030;31
2023/06/04 12:55:39;;;;;;;1.67;0.75;;;24.60;58.40;;;;;;2603763;54;20027;31
2023/06/04 12:58:14;;;;;;;;;;;24.50;58.60;;;;;;2603888;54;20125;31
2023/06/04 13:00:49;;;;;;;3.05;0.85;;;24.60;58.70;;;;;;2621693;46;20743;31
2023/06/04 13:03:28;;;;;;;2.80;0.80;;;24.60;58.80;;;;;;2603566;54;20045;31
2023/06/04 13:06:03;;;;;;;2.65;0.98;;;24.50;59.50;;;;;;2603506;54;20030;31
2023/06/04 13:08:38;;;;;;;3.33;0.70;;;24.60;58.70;;;;;;2603267;54;20128;31
2023/06/04 13:11:14;;;;;;;4.15;0.77;;;24.60;58.50;;;;;;2603416;54;20081;31
2023/06/04 13:13:48;;;;;;;;;;;24.70;59.70;;;;;;2603568;54;20037;31
2023/06/04 13:16:23;;;;;;;1.07;0.57;;;24.70;59.20;;;;;;2603530;54;19942;31
2023/06/04 13:19:01;;;;;;;1.88;1.00;;;24.70;58.40;;;;;;2603347;54;20971;31
2023/06/04 13:21:37;;;;;;;2.25;0.80;;;24.70;58.30;;;;;;2603258;54;20026;31
2023/06/04 13:24:12;;;;;;;;;;;24.60;59.00;;;;;;2603653;54;20022;31
2023/06/04 13:26:47;;;;;;;2.53;0.77;;;24.50;57.70;;;;;;2603354;54;19941;31
2023/06/04 13:29:23;;;;;;;5.25;0.85;;;24.50;58.00;;;;;;2603369;54;20273;31
2023/06/04 13:31:57;;;;;;;3.33;0.87;;;24.40;57.70;;;;;;2603127;54;20259;31
2023/06/04 13:34:36;;;;;;;1.65;0.93;;;24.40;58.40;;;;;;2603205;54;20026;31
2023/06/04 13:37:12;;;;;;;1.30;0.88;;;24.40;57.90;;;;;;2621541;46;20076;31
2023/06/04 13:39:47;;;;;;;2.30;0.80;;;24.40;58.30;;;;;;2603389;54;20825;31
2023/06/04 13:42:22;;;;;;;2.15;1.13;;;24.40;58.70;;;;;;2603355;54;20882;31
2023/06/04 13:44:57;;;;;;;4.78;0.90;;;24.40;58.40;;;;;;2603152;54;20022;31
2023/06/04 13:47:32;;;;;;;2.50;0.80;;;24.40;58.50;;;;;;2603333;54;20740;31
2023/06/04 13:50:11;;;;;;;2.10;0.90;;;24.40;59.60;;;;;;2603463;54;20881;31
2023/06/04 13:52:47;;;;;;;2.03;0.75;;;24.50;59.90;;;;;;2603153;54;20537;31
2023/06/04 13:55:21;;;;;;;1.95;0.70;;;24.40;58.00;;;;;;2603188;54;20493;31
2023/06/04 13:57:57;;;;;;;4.90;1.00;;;24.40;57.10;;;;;;2603218;54;20033;31